createdAt,value
2018-10-06T00:00:26.785Z,14.90
2018-10-06T00:02:57.096Z,15.57
2018-10-06T00:05:27.041Z,13.47
2018-10-06T00:07:56.842Z,14.93
2018-10-06T00:10:26.738Z,16.43
2018-10-06T00:12:56.577Z,18.23
2018-10-06T00:15:27.025Z,17.23
2018-10-06T00:17:56.773Z,17.00
2018-10-06T00:20:26.809Z,18.00
2018-10-06T00:22:56.617Z,17.70
2018-10-06T00:25:26.614Z,14.80
2018-10-06T00:27:56.835Z,13.30
2018-10-06T00:30:26.610Z,13.90
2018-10-06T00:32:56.737Z,13.57
2018-10-06T00:35:26.634Z,12.53
2018-10-06T00:37:56.748Z,12.17
2018-10-06T00:40:26.712Z,12.10
2018-10-06T00:42:56.785Z,13.32
2018-10-06T00:45:26.735Z,12.93
2018-10-06T00:47:56.636Z,12.50
2018-10-06T00:50:26.581Z,12.78
2018-10-06T00:52:56.697Z,12.80
2018-10-06T00:55:26.685Z,12.10
2018-10-06T00:57:56.508Z,12.87
2018-10-06T01:00:26.326Z,12.00
2018-10-06T01:02:56.263Z,12.50
2018-10-06T01:05:26.129Z,12.47
2018-10-06T01:07:55.881Z,11.87
2018-10-06T01:10:25.612Z,12.23
2018-10-06T01:12:55.437Z,11.90
2018-10-06T01:15:25.202Z,12.77
2018-10-06T01:17:55.181Z,12.93
2018-10-06T01:20:25.674Z,13.98
2018-10-06T01:22:56.775Z,15.78
2018-10-06T01:25:27.573Z,15.70
2018-10-06T01:27:58.905Z,15.32
2018-10-06T01:30:29.684Z,15.03
2018-10-06T01:33:00.604Z,14.60
2018-10-06T01:35:31.369Z,13.20
2018-10-06T01:38:02.735Z,12.50
2018-10-06T01:40:33.519Z,12.13
2018-10-06T01:43:05.081Z,12.08
2018-10-06T01:45:35.652Z,12.98
2018-10-06T01:48:06.515Z,12.65
2018-10-06T01:50:37.320Z,12.13
2018-10-06T01:53:09.073Z,13.54
2018-10-06T01:55:39.748Z,13.83
2018-10-06T01:58:10.789Z,13.30
2018-10-06T02:00:41.605Z,12.82
2018-10-06T02:03:12.537Z,13.32
2018-10-06T02:05:43.730Z,12.24
2018-10-06T02:08:14.865Z,12.90
2018-10-06T02:10:45.673Z,13.18
2018-10-06T02:13:16.947Z,12.28
2018-10-06T02:15:48.021Z,12.35
2018-10-06T02:18:18.625Z,11.95
2018-10-06T02:20:49.387Z,12.73
2018-10-06T02:23:20.785Z,12.24
2018-10-06T02:25:51.654Z,12.90
2018-10-06T02:28:22.580Z,14.10
2018-10-06T02:30:53.344Z,14.55
2018-10-06T02:33:24.766Z,13.08
2018-10-06T02:35:55.878Z,13.85
2018-10-06T02:38:27.061Z,13.20
2018-10-06T02:41:05.205Z,13.32
2018-10-06T02:43:35.110Z,13.33
2018-10-06T02:46:05.490Z,13.62
2018-10-06T02:48:35.600Z,13.10
2018-10-06T02:51:05.361Z,12.40
2018-10-06T02:53:35.248Z,11.55
2018-10-06T02:56:05.493Z,11.53
2018-10-06T02:58:35.237Z,11.67
2018-10-06T03:01:05.857Z,12.20
2018-10-06T03:03:36.675Z,11.68
2018-10-06T03:06:07.593Z,11.57
2018-10-06T03:08:38.381Z,13.22
2018-10-06T03:11:09.731Z,15.24
2018-10-06T03:13:41.019Z,14.18
2018-10-06T03:16:11.638Z,11.85
2018-10-06T03:18:42.395Z,10.80
2018-10-06T03:21:13.765Z,10.44
2018-10-06T03:23:44.484Z,10.15
2018-10-06T03:26:15.755Z,10.96
2018-10-06T03:28:46.481Z,10.48
2018-10-06T03:31:17.978Z,10.34
2018-10-06T03:33:48.567Z,10.30
2018-10-06T03:36:19.559Z,10.45
2018-10-06T03:38:50.461Z,10.10
2018-10-06T03:41:21.724Z,10.42
2018-10-06T03:43:52.697Z,10.65
2018-10-06T03:46:23.521Z,9.30
2018-10-06T03:48:54.357Z,9.53
2018-10-06T03:51:25.725Z,10.20
2018-10-06T03:53:56.613Z,13.90
2018-10-06T03:56:28.016Z,33.48
2018-10-06T03:58:58.761Z,17.15
2018-10-06T04:01:29.639Z,31.42
2018-10-06T04:04:00.398Z,91.42
2018-10-06T04:06:31.865Z,156.30
2018-10-06T04:09:02.584Z,142.00
2018-10-06T04:11:33.586Z,108.75
2018-10-06T04:14:04.393Z,42.62
2018-10-06T04:16:35.841Z,43.72
2018-10-06T04:19:06.742Z,29.60
2018-10-06T04:21:52.575Z,25.02
2018-10-06T04:24:22.604Z,19.07
2018-10-06T04:26:52.414Z,19.17
2018-10-06T04:29:22.497Z,15.95
2018-10-06T04:31:52.250Z,14.03
2018-10-06T04:34:22.305Z,13.90
2018-10-06T04:36:52.126Z,20.03
2018-10-06T04:39:22.392Z,14.00
2018-10-06T04:41:52.477Z,10.58
2018-10-06T04:44:22.184Z,9.80
2018-10-06T04:46:52.526Z,8.95
2018-10-06T04:49:22.572Z,9.62
2018-10-06T04:51:52.336Z,9.60
2018-10-06T04:54:22.409Z,9.63
2018-10-06T04:56:52.244Z,10.10
2018-10-06T04:59:22.783Z,11.57
2018-10-06T05:01:53.574Z,10.50
2018-10-06T05:04:24.424Z,9.60
2018-10-06T05:06:55.545Z,9.08
2018-10-06T05:09:26.650Z,9.28
2018-10-06T05:11:57.393Z,10.68
2018-10-06T05:14:28.978Z,10.52
2018-10-06T05:16:59.645Z,10.72
2018-10-06T05:19:30.545Z,8.98
2018-10-06T05:22:01.325Z,9.40
2018-10-06T05:24:32.700Z,10.10
2018-10-06T05:27:03.502Z,9.98
2018-10-06T05:29:34.411Z,9.30
2018-10-06T05:32:05.352Z,9.10
2018-10-06T05:34:36.756Z,8.84
2018-10-06T05:37:07.556Z,8.40
2018-10-06T05:39:38.776Z,8.15
2018-10-06T05:42:09.539Z,7.17
2018-10-06T05:44:40.598Z,7.35
2018-10-06T05:47:11.527Z,7.37
2018-10-06T05:49:42.462Z,7.28
2018-10-06T05:52:13.316Z,7.80
2018-10-06T05:54:44.875Z,10.12
2018-10-06T05:57:15.631Z,10.55
2018-10-06T05:59:46.557Z,9.93
2018-10-06T06:02:17.433Z,12.98
2018-10-06T06:04:48.646Z,11.06
2018-10-06T06:07:19.386Z,9.25
2018-10-06T06:09:50.690Z,17.62
2018-10-06T06:12:21.657Z,23.77
2018-10-06T06:14:52.925Z,28.70
2018-10-06T06:18:47.715Z,19.77
2018-10-06T06:21:17.889Z,13.07
2018-10-06T06:23:47.681Z,10.80
2018-10-06T06:26:17.665Z,10.17
2018-10-06T06:28:47.632Z,9.17
2018-10-06T06:31:17.631Z,8.30
2018-10-06T06:33:47.802Z,8.00
2018-10-06T06:36:17.603Z,7.37
2018-10-06T06:38:47.767Z,7.50
2018-10-06T06:41:17.685Z,7.47
2018-10-06T06:43:47.953Z,7.90
2018-10-06T06:46:17.949Z,8.03
2018-10-06T06:48:47.853Z,9.07
2018-10-06T06:51:18.313Z,9.83
2018-10-06T06:53:48.048Z,9.77
2018-10-06T06:56:17.881Z,8.23
2018-10-06T06:58:47.950Z,6.90
2018-10-06T07:01:17.708Z,7.23
2018-10-06T07:03:47.820Z,7.40
2018-10-06T07:06:17.556Z,6.90
2018-10-06T07:08:47.713Z,6.77
2018-10-06T07:11:17.824Z,7.20
2018-10-06T07:13:47.784Z,6.50
2018-10-06T07:16:17.861Z,7.53
2018-10-06T07:18:47.635Z,7.80
2018-10-06T07:21:17.718Z,7.23
2018-10-06T07:23:47.690Z,7.03
2018-10-06T07:26:18.772Z,6.67
2018-10-06T07:28:55.318Z,7.10
2018-10-06T07:31:26.993Z,7.30
2018-10-06T07:33:56.862Z,7.27
2018-10-06T07:36:26.777Z,7.23
2018-10-06T07:38:56.964Z,7.20
2018-10-06T07:41:26.737Z,6.90
2018-10-06T07:43:56.796Z,7.53
2018-10-06T07:46:26.745Z,6.67
2018-10-06T07:48:56.717Z,7.03
2018-10-06T07:51:26.643Z,7.07
2018-10-06T07:53:56.682Z,6.93
2018-10-06T07:56:26.819Z,6.73
2018-10-06T07:58:56.914Z,6.43
2018-10-06T08:01:26.669Z,6.53
2018-10-06T08:03:56.698Z,7.57
2018-10-06T08:06:26.691Z,9.57
2018-10-06T08:08:56.633Z,8.87
2018-10-06T08:11:26.706Z,8.37
2018-10-06T08:13:56.847Z,7.17
2018-10-06T08:16:26.624Z,7.03
2018-10-06T08:18:56.701Z,7.40
2018-10-06T08:21:26.560Z,6.53
2018-10-06T08:23:56.690Z,6.83
2018-10-06T08:26:26.666Z,6.43
2018-10-06T08:28:56.661Z,6.30
2018-10-06T08:31:26.722Z,6.60
2018-10-06T08:33:56.819Z,6.50
2018-10-06T08:36:26.912Z,5.93
2018-10-06T08:38:56.688Z,6.67
2018-10-06T08:41:26.622Z,6.27
2018-10-06T08:43:56.649Z,6.40
2018-10-06T08:46:26.694Z,5.87
2018-10-06T08:48:56.752Z,6.20
2018-10-06T08:51:26.622Z,5.87
2018-10-06T08:53:56.682Z,6.43
2018-10-06T08:56:26.974Z,6.27
2018-10-06T08:58:56.805Z,6.60
2018-10-06T09:01:26.853Z,5.77
2018-10-06T09:03:56.626Z,5.90
2018-10-06T09:06:26.696Z,5.83
2018-10-06T09:08:56.707Z,5.83
2018-10-06T09:11:26.665Z,6.17
2018-10-06T09:13:56.685Z,6.03
2018-10-06T09:16:26.533Z,7.37
2018-10-06T09:18:56.693Z,7.73
2018-10-06T09:21:26.600Z,6.23
2018-10-06T09:23:56.598Z,6.40
2018-10-06T09:26:26.713Z,5.90
2018-10-06T09:28:56.628Z,5.80
2018-10-06T09:31:26.743Z,5.90
2018-10-06T09:33:56.656Z,5.43
2018-10-06T09:36:26.786Z,5.58
2018-10-06T09:38:56.621Z,6.53
2018-10-06T09:41:26.904Z,6.00
2018-10-06T09:43:57.385Z,6.22
2018-10-06T09:46:27.474Z,5.40
2018-10-06T09:48:57.448Z,5.77
2018-10-06T09:51:27.276Z,6.03
2018-10-06T09:53:57.272Z,6.77
2018-10-06T09:56:27.225Z,6.17
2018-10-06T09:59:00.872Z,5.53
2018-10-06T10:01:35.908Z,6.00
2018-10-06T10:04:10.358Z,5.83
2018-10-06T10:06:40.796Z,5.77
2018-10-06T10:09:13.066Z,5.57
2018-10-06T10:11:43.059Z,5.20
2018-10-06T10:14:13.126Z,5.80
2018-10-06T10:16:43.389Z,6.47
2018-10-06T10:19:13.132Z,5.30
2018-10-06T10:21:42.959Z,5.70
2018-10-06T10:24:12.854Z,5.70
2018-10-06T10:26:43.107Z,5.20
2018-10-06T10:29:13.224Z,5.05
2018-10-06T10:31:43.080Z,5.77
2018-10-06T10:34:13.208Z,6.13
2018-10-06T10:36:43.161Z,6.10
2018-10-06T10:39:13.611Z,5.87
2018-10-06T10:41:43.622Z,5.60
2018-10-06T10:44:13.391Z,5.67
2018-10-06T10:46:43.474Z,6.03
2018-10-06T10:49:13.241Z,5.13
2018-10-06T10:51:43.005Z,5.97
2018-10-06T10:54:12.808Z,5.73
2018-10-06T10:56:42.649Z,5.70
2018-10-06T10:59:12.686Z,5.67
2018-10-06T11:01:43.558Z,5.35
2018-10-06T11:04:14.629Z,5.40
2018-10-06T11:06:45.465Z,6.25
2018-10-06T11:09:16.281Z,5.58
2018-10-06T11:11:47.753Z,5.70
2018-10-06T11:14:18.517Z,6.17
2018-10-06T11:16:49.352Z,5.15
2018-10-06T11:19:20.631Z,27.60
2018-10-06T11:21:51.548Z,94.50
2018-10-06T11:24:22.368Z,42.85
2018-10-06T11:26:53.823Z,26.68
2018-10-06T11:29:25.169Z,31.12
2018-10-06T11:31:55.716Z,14.80
2018-10-06T11:34:26.476Z,69.03
2018-10-06T11:36:57.887Z,8.70
2018-10-06T11:39:28.530Z,6.53
2018-10-06T11:41:59.526Z,10.65
2018-10-06T11:44:30.314Z,48.15
2018-10-06T11:47:01.787Z,12.50
2018-10-06T11:49:31.760Z,29.03
2018-10-06T11:52:02.984Z,7.37
2018-10-06T11:54:34.476Z,9.98
2018-10-06T11:57:05.811Z,5.40
2018-10-06T11:59:35.670Z,61.73
2018-10-06T12:02:06.740Z,76.70
2018-10-06T12:04:37.729Z,30.82
2018-10-06T12:07:08.713Z,17.85
2018-10-06T12:09:39.452Z,164.50
2018-10-06T12:12:10.924Z,65.06
2018-10-06T12:14:41.529Z,10.88
2018-10-06T12:17:12.654Z,39.58
2018-10-06T12:19:43.757Z,8.60
2018-10-06T12:22:14.538Z,6.03
2018-10-06T12:24:45.537Z,7.40
2018-10-06T12:27:16.412Z,14.23
2018-10-06T12:29:47.676Z,6.46
2018-10-06T12:32:18.504Z,61.58
2018-10-06T12:34:49.575Z,6.40
2018-10-06T12:37:20.843Z,33.70
2018-10-06T12:39:51.677Z,40.03
2018-10-06T12:42:23.158Z,17.25
2018-10-06T12:44:53.682Z,62.24
2018-10-06T12:47:24.595Z,25.62
2018-10-06T12:49:55.397Z,23.80
2018-10-06T12:52:26.818Z,14.88
2018-10-06T12:54:57.600Z,35.52
2018-10-06T12:57:28.485Z,15.53
2018-10-06T12:59:59.546Z,8.65
2018-10-06T13:02:30.670Z,5.83
2018-10-06T13:05:01.826Z,9.45
2018-10-06T13:07:32.837Z,6.75
2018-10-06T13:10:03.680Z,5.92
2018-10-06T13:12:34.513Z,6.78
2018-10-06T13:15:05.493Z,7.20
2018-10-06T13:17:36.425Z,92.37
2018-10-06T13:20:07.748Z,13.72
2018-10-06T13:22:39.007Z,13.45
2018-10-06T13:25:10.123Z,17.75
2018-10-06T13:27:40.697Z,7.22
2018-10-06T13:30:11.701Z,9.08
2018-10-06T13:32:42.633Z,12.40
2018-10-06T13:35:13.486Z,21.50
2018-10-06T13:37:44.785Z,7.50
2018-10-06T13:40:15.593Z,9.48
2018-10-06T13:42:46.601Z,6.12
2018-10-06T13:45:17.343Z,6.40
2018-10-06T13:47:48.700Z,6.18
2018-10-06T13:50:19.541Z,8.70
2018-10-06T13:52:50.563Z,52.58
2018-10-06T13:55:21.477Z,16.45
2018-10-06T13:57:52.782Z,8.08
2018-10-06T14:00:23.753Z,9.58
2018-10-06T14:02:54.921Z,6.95
2018-10-06T14:05:25.714Z,7.28
2018-10-06T14:07:56.929Z,7.78
2018-10-06T14:10:27.847Z,7.33
2018-10-06T14:12:59.040Z,6.90
2018-10-06T14:15:29.745Z,6.70
2018-10-06T14:18:01.193Z,7.72
2018-10-06T14:20:31.784Z,7.30
2018-10-06T14:23:02.762Z,7.53
2018-10-06T14:25:34.405Z,6.97
2018-10-06T14:28:04.824Z,7.25
2018-10-06T14:30:35.863Z,7.20
2018-10-06T14:33:07.052Z,26.10
2018-10-06T14:35:37.876Z,15.68
2018-10-06T14:38:09.879Z,7.62
2018-10-06T14:40:39.857Z,8.27
2018-10-06T14:43:10.785Z,8.38
2018-10-06T14:45:41.879Z,7.47
2018-10-06T14:48:12.797Z,7.47
2018-10-06T14:50:43.827Z,7.80
2018-10-06T14:53:14.742Z,7.33
2018-10-06T14:55:45.581Z,6.83
2018-10-06T14:58:16.621Z,7.42
2018-10-06T15:00:47.610Z,7.37
2018-10-06T15:03:18.591Z,7.83
2018-10-06T15:05:49.482Z,7.67
2018-10-06T15:08:20.613Z,7.20
2018-10-06T15:10:51.485Z,14.75
2018-10-06T15:13:22.621Z,101.25
2018-10-06T15:15:53.488Z,14.28
2018-10-06T15:18:24.469Z,12.05
2018-10-06T15:20:55.365Z,11.93
2018-10-06T15:23:27.029Z,10.62
2018-10-06T15:25:58.154Z,14.23
2018-10-06T15:28:28.759Z,13.80
2018-10-06T15:30:59.517Z,12.63
2018-10-06T15:33:30.441Z,13.10
2018-10-06T15:36:01.617Z,10.32
2018-10-06T15:38:32.484Z,9.63
2018-10-06T15:41:03.416Z,9.80
2018-10-06T15:43:34.522Z,10.95
2018-10-06T15:46:05.311Z,9.88
2018-10-06T15:48:37.173Z,9.86
2018-10-06T15:51:07.815Z,9.80
2018-10-06T15:53:38.747Z,10.53
2018-10-06T15:56:09.670Z,9.90
2018-10-06T15:58:40.578Z,9.53
2018-10-06T16:01:11.566Z,336.70
2018-10-06T16:03:42.548Z,143.37
2018-10-06T16:06:13.408Z,237.60
2018-10-06T16:08:44.914Z,108.52
2018-10-06T16:11:15.646Z,225.80
2018-10-06T16:13:46.513Z,179.20
2018-10-06T16:16:17.742Z,74.90
2018-10-06T16:18:48.769Z,111.03
2018-10-06T16:21:19.573Z,122.10
2018-10-06T16:23:50.449Z,94.32
2018-10-06T16:26:21.776Z,31.26
2018-10-06T16:28:52.966Z,46.00
2018-10-06T16:31:23.550Z,32.60
2018-10-06T16:33:54.573Z,44.77
2018-10-06T16:36:25.326Z,34.20
2018-10-06T16:38:56.741Z,26.34
2018-10-06T16:41:27.509Z,15.75
2018-10-06T16:43:58.491Z,14.95
2018-10-06T16:46:29.321Z,84.45
2018-10-06T16:49:00.697Z,64.58
2018-10-06T16:51:31.705Z,38.02
2018-10-06T16:54:02.652Z,18.75
2018-10-06T16:56:33.481Z,18.02
2018-10-06T16:59:04.513Z,12.23
2018-10-06T17:01:35.569Z,12.43
2018-10-06T17:04:06.845Z,14.30
2018-10-06T17:06:37.640Z,12.47
2018-10-06T17:09:10.765Z,15.15
2018-10-06T17:11:40.549Z,14.55
2018-10-06T17:14:16.929Z,11.10
2018-10-06T17:16:47.273Z,11.18
2018-10-06T17:19:17.221Z,19.13
2018-10-06T17:21:47.005Z,11.23
2018-10-06T17:24:16.995Z,10.77
2018-10-06T17:26:47.590Z,224.37
2018-10-06T17:29:17.386Z,225.13
2018-10-06T17:31:48.025Z,94.30
2018-10-06T17:34:18.654Z,25.00
2018-10-06T17:36:49.569Z,27.17
2018-10-06T17:39:20.310Z,21.23
2018-10-06T17:41:51.721Z,21.24
2018-10-06T17:44:22.714Z,16.60
2018-10-06T17:46:53.773Z,16.67
2018-10-06T17:49:24.577Z,19.07
2018-10-06T17:51:55.524Z,17.52
2018-10-06T17:54:26.425Z,16.67
2018-10-06T17:56:57.768Z,15.48
2018-10-06T17:59:28.586Z,16.97
2018-10-06T18:01:59.583Z,15.55
2018-10-06T18:04:30.393Z,12.40
2018-10-06T18:07:01.713Z,13.12
2018-10-06T18:09:34.377Z,11.65
2018-10-06T18:12:04.438Z,12.63
2018-10-06T18:14:34.706Z,13.73
2018-10-06T18:17:06.981Z,14.00
2018-10-06T18:19:37.019Z,36.33
2018-10-06T18:22:07.760Z,13.45
2018-10-06T18:24:38.555Z,13.43
2018-10-06T18:27:09.712Z,15.48
2018-10-06T18:29:44.044Z,13.58
2018-10-06T18:32:14.209Z,13.95
2018-10-06T18:34:44.529Z,13.43
2018-10-06T18:37:14.417Z,12.60
2018-10-06T18:39:44.495Z,12.20
2018-10-06T18:42:15.966Z,12.43
2018-10-06T18:44:46.614Z,11.95
2018-10-06T18:47:17.633Z,12.25
2018-10-06T18:49:48.516Z,11.85
2018-10-06T18:52:19.618Z,12.13
2018-10-06T18:54:50.545Z,12.40
2018-10-06T18:57:21.564Z,12.50
2018-10-06T18:59:52.309Z,12.28
2018-10-06T19:02:23.961Z,13.38
2018-10-06T19:04:54.553Z,15.68
2018-10-06T19:07:26.049Z,30.15
2018-10-06T19:09:56.585Z,23.02
2018-10-06T19:12:27.767Z,19.32
2018-10-06T19:14:58.496Z,23.32
2018-10-06T19:17:29.489Z,16.55
2018-10-06T19:20:00.387Z,18.27
2018-10-06T19:22:31.907Z,16.18
2018-10-06T19:25:02.866Z,16.65
2018-10-06T19:27:33.834Z,16.20
2018-10-06T19:30:04.716Z,16.15
2018-10-06T19:32:35.832Z,14.83
2018-10-06T19:35:06.829Z,14.65
2018-10-06T19:37:37.753Z,14.30
2018-10-06T19:40:08.601Z,15.40
2018-10-06T19:42:39.469Z,14.73
2018-10-06T19:45:10.764Z,14.90
2018-10-06T19:47:41.764Z,14.18
2018-10-06T19:50:12.589Z,14.75
2018-10-06T19:52:52.188Z,14.18
2018-10-06T19:55:24.018Z,13.83
2018-10-06T19:57:53.981Z,13.40
2018-10-06T20:00:24.534Z,13.98
2018-10-06T20:02:54.697Z,13.67
2018-10-06T20:05:24.495Z,14.17
2018-10-06T20:07:54.504Z,14.03
2018-10-06T20:10:25.241Z,12.93
2018-10-06T20:12:55.277Z,13.27
2018-10-06T20:15:25.289Z,14.53
2018-10-06T20:17:55.077Z,13.40
2018-10-06T20:20:25.502Z,13.17
2018-10-06T20:22:55.799Z,12.80
2018-10-06T20:25:25.610Z,13.03
2018-10-06T20:27:56.444Z,13.08
2018-10-06T20:30:28.220Z,12.70
2018-10-06T20:32:58.807Z,12.80
2018-10-06T20:35:30.373Z,13.70
2018-10-06T20:38:00.873Z,12.92
2018-10-06T20:40:31.632Z,13.05
2018-10-06T20:43:02.669Z,12.35
2018-10-06T20:45:33.453Z,13.13
2018-10-06T20:48:04.458Z,12.98
2018-10-06T20:50:35.338Z,13.62
2018-10-06T20:53:06.749Z,13.80
2018-10-06T20:55:37.539Z,15.10
2018-10-06T20:58:08.460Z,14.18
2018-10-06T21:00:39.673Z,13.30
2018-10-06T21:03:10.902Z,14.85
2018-10-06T21:05:41.673Z,13.38
2018-10-06T21:08:12.512Z,12.85
2018-10-06T21:10:43.334Z,13.30
2018-10-06T21:13:14.799Z,13.62
2018-10-06T21:15:45.566Z,13.08
2018-10-06T21:18:16.552Z,14.00
2018-10-06T21:20:47.526Z,12.58
2018-10-06T21:23:18.518Z,14.23
2018-10-06T21:25:49.326Z,14.78
2018-10-06T21:28:20.737Z,15.70
2018-10-06T21:30:51.492Z,13.90
2018-10-06T21:33:22.742Z,15.72
2018-10-06T21:35:53.504Z,15.68
2018-10-06T21:38:24.419Z,15.95
2018-10-06T21:40:55.687Z,14.94
2018-10-06T21:43:26.754Z,15.43
2018-10-06T21:45:57.564Z,15.72
2018-10-06T21:48:28.798Z,15.08
2018-10-06T21:50:59.579Z,17.98
2018-10-06T21:53:30.617Z,17.10
2018-10-06T21:56:01.537Z,17.82
2018-10-06T21:58:32.398Z,16.93
2018-10-06T22:01:11.474Z,16.93
2018-10-06T22:03:42.221Z,16.77
2018-10-06T22:06:12.033Z,16.97
2018-10-06T22:08:42.417Z,16.67
2018-10-06T22:11:12.193Z,16.63
2018-10-06T22:13:42.014Z,16.10
2018-10-06T22:16:11.895Z,14.43
2018-10-06T22:18:41.621Z,14.18
2018-10-06T22:21:11.549Z,12.60
2018-10-06T22:23:42.364Z,12.05
2018-10-06T22:26:13.721Z,12.80
2018-10-06T22:28:44.796Z,13.70
2018-10-06T22:31:15.769Z,12.37
2018-10-06T22:33:46.886Z,12.50
2018-10-06T22:36:17.566Z,12.43
2018-10-06T22:38:48.596Z,12.37
2018-10-06T22:41:19.369Z,11.68
2018-10-06T22:43:50.867Z,12.06
2018-10-06T22:46:21.605Z,12.20
2018-10-06T22:48:52.638Z,12.35
2018-10-06T22:51:24.909Z,12.85
2018-10-06T22:53:54.914Z,13.03
2018-10-06T22:56:25.865Z,12.78
2018-10-06T22:58:57.062Z,12.78
2018-10-06T23:01:27.883Z,12.53
2018-10-06T23:03:59.009Z,11.65
2018-10-06T23:06:30.290Z,12.03
2018-10-06T23:09:02.140Z,12.76
2018-10-06T23:11:31.963Z,12.60
2018-10-06T23:14:02.881Z,12.10
2018-10-06T23:16:33.582Z,12.20
2018-10-06T23:19:05.076Z,12.82
2018-10-06T23:21:35.943Z,11.40
2018-10-06T23:24:06.716Z,13.18
2018-10-06T23:26:37.589Z,12.43
2018-10-06T23:29:08.509Z,12.47
2018-10-06T23:31:39.753Z,13.24
2018-10-06T23:34:10.955Z,14.13
2018-10-06T23:36:41.664Z,14.45
2018-10-06T23:39:12.721Z,15.03
2018-10-06T23:41:43.943Z,15.25
2018-10-06T23:44:14.642Z,15.00
2018-10-06T23:46:45.456Z,15.75
2018-10-06T23:49:16.812Z,15.48
2018-10-06T23:51:47.621Z,16.52
2018-10-06T23:54:18.517Z,15.88
2018-10-06T23:56:49.365Z,16.07
2018-10-06T23:59:20.590Z,17.23
